sensor_id;sensor_type;location;lat;lon;timestamp;P1;durP1;ratioP1;P2;durP2;ratioP2
56927;SDS011;60850;52.502;13.426;2022-12-20T00:00:59;21.40;;;10.82;;
56927;SDS011;60850;52.502;13.426;2022-12-20T00:03:26;21.88;;;9.85;;
56927;SDS011;60850;52.502;13.426;2022-12-20T00:05:55;19.98;;;9.85;;
56927;SDS011;60850;52.502;13.426;2022-12-20T00:08:21;23.88;;;10.10;;
56927;SDS011;60850;52.502;13.426;2022-12-20T00:10:49;22.52;;;10.45;;
56927;SDS011;60850;52.502;13.426;2022-12-20T00:13:16;23.77;;;10.18;;
56927;SDS011;60850;52.502;13.426;2022-12-20T00:15:43;26.88;;;10.98;;
56927;SDS011;60850;52.502;13.426;2022-12-20T00:18:10;22.20;;;10.65;;
56927;SDS011;60850;52.502;13.426;2022-12-20T00:20:37;23.35;;;10.75;;
56927;SDS011;60850;52.502;13.426;2022-12-20T00:23:05;24.08;;;10.65;;
56927;SDS011;60850;52.502;13.426;2022-12-20T00:25:33;22.38;;;10.25;;
56927;SDS011;60850;52.502;13.426;2022-12-20T00:27:59;21.25;;;10.50;;
56927;SDS011;60850;52.502;13.426;2022-12-20T00:30:27;23.20;;;10.48;;
56927;SDS011;60850;52.502;13.426;2022-12-20T00:32:54;22.45;;;9.98;;
56927;SDS011;60850;52.502;13.426;2022-12-20T00:35:21;24.85;;;10.52;;
56927;SDS011;60850;52.502;13.426;2022-12-20T00:37:48;24.92;;;11.20;;
56927;SDS011;60850;52.502;13.426;2022-12-20T00:40:17;24.25;;;10.52;;
56927;SDS011;60850;52.502;13.426;2022-12-20T00:42:44;21.85;;;9.88;;
56927;SDS011;60850;52.502;13.426;2022-12-20T00:45:11;22.92;;;9.80;;
56927;SDS011;60850;52.502;13.426;2022-12-20T00:47:38;25.42;;;11.20;;
56927;SDS011;60850;52.502;13.426;2022-12-20T00:50:05;24.88;;;10.07;;
56927;SDS011;60850;52.502;13.426;2022-12-20T00:52:33;28.70;;;11.60;;
56927;SDS011;60850;52.502;13.426;2022-12-20T00:55:00;22.80;;;10.50;;
56927;SDS011;60850;52.502;13.426;2022-12-20T00:57:29;21.90;;;10.38;;
56927;SDS011;60850;52.502;13.426;2022-12-20T00:59:56;23.67;;;10.65;;
56927;SDS011;60850;52.502;13.426;2022-12-20T01:02:23;19.60;;;9.32;;
56927;SDS011;60850;52.502;13.426;2022-12-20T01:04:50;21.38;;;9.77;;
56927;SDS011;60850;52.502;13.426;2022-12-20T01:07:17;20.20;;;10.30;;
56927;SDS011;60850;52.502;13.426;2022-12-20T01:09:45;21.23;;;10.35;;
56927;SDS011;60850;52.502;13.426;2022-12-20T01:12:12;23.27;;;10.32;;
56927;SDS011;60850;52.502;13.426;2022-12-20T01:14:41;19.23;;;9.98;;
56927;SDS011;60850;52.502;13.426;2022-12-20T01:17:08;26.02;;;11.32;;
56927;SDS011;60850;52.502;13.426;2022-12-20T01:19:35;23.77;;;11.10;;
56927;SDS011;60850;52.502;13.426;2022-12-20T01:22:02;20.48;;;9.90;;
56927;SDS011;60850;52.502;13.426;2022-12-20T01:24:29;26.42;;;11.80;;
56927;SDS011;60850;52.502;13.426;2022-12-20T01:26:56;31.00;;;11.82;;
56927;SDS011;60850;52.502;13.426;2022-12-20T01:29:23;26.35;;;12.07;;
56927;SDS011;60850;52.502;13.426;2022-12-20T01:31:51;21.23;;;10.15;;
56927;SDS011;60850;52.502;13.426;2022-12-20T01:34:19;22.23;;;10.02;;
56927;SDS011;60850;52.502;13.426;2022-12-20T01:36:46;21.85;;;9.50;;
56927;SDS011;60850;52.502;13.426;2022-12-20T01:39:14;18.75;;;9.25;;
56927;SDS011;60850;52.502;13.426;2022-12-20T01:41:42;22.08;;;9.50;;
56927;SDS011;60850;52.502;13.426;2022-12-20T01:47:16;17.13;;;8.70;;
56927;SDS011;60850;52.502;13.426;2022-12-20T01:49:44;19.00;;;9.40;;
56927;SDS011;60850;52.502;13.426;2022-12-20T01:52:14;18.65;;;9.25;;
56927;SDS011;60850;52.502;13.426;2022-12-20T01:54:45;20.42;;;9.60;;
56927;SDS011;60850;52.502;13.426;2022-12-20T01:57:16;22.40;;;9.90;;
56927;SDS011;60850;52.502;13.426;2022-12-20T01:59:46;23.58;;;10.95;;
56927;SDS011;60850;52.502;13.426;2022-12-20T02:02:17;28.88;;;12.70;;
56927;SDS011;60850;52.502;13.426;2022-12-20T02:04:44;27.30;;;11.70;;
56927;SDS011;60850;52.502;13.426;2022-12-20T02:07:12;24.25;;;11.50;;
56927;SDS011;60850;52.502;13.426;2022-12-20T02:09:44;25.80;;;11.55;;
56927;SDS011;60850;52.502;13.426;2022-12-20T02:12:14;24.92;;;11.70;;
56927;SDS011;60850;52.502;13.426;2022-12-20T02:14:47;20.67;;;9.50;;
56927;SDS011;60850;52.502;13.426;2022-12-20T02:17:30;22.58;;;9.60;;
56927;SDS011;60850;52.502;13.426;2022-12-20T02:20:17;18.98;;;9.40;;
56927;SDS011;60850;52.502;13.426;2022-12-20T02:23:10;21.88;;;9.43;;
56927;SDS011;60850;52.502;13.426;2022-12-20T02:25:55;18.33;;;9.15;;
56927;SDS011;60850;52.502;13.426;2022-12-20T02:28:44;19.85;;;9.57;;
56927;SDS011;60850;52.502;13.426;2022-12-20T02:31:29;19.63;;;9.23;;
56927;SDS011;60850;52.502;13.426;2022-12-20T02:34:03;21.08;;;9.27;;
56927;SDS011;60850;52.502;13.426;2022-12-20T02:36:33;17.33;;;8.48;;
56927;SDS011;60850;52.502;13.426;2022-12-20T02:39:00;17.70;;;9.00;;
56927;SDS011;60850;52.502;13.426;2022-12-20T02:41:29;18.15;;;8.18;;
56927;SDS011;60850;52.502;13.426;2022-12-20T02:44:03;15.70;;;7.78;;
56927;SDS011;60850;52.502;13.426;2022-12-20T02:46:51;19.23;;;8.88;;
56927;SDS011;60850;52.502;13.426;2022-12-20T02:49:22;17.13;;;8.00;;
56927;SDS011;60850;52.502;13.426;2022-12-20T02:51:53;18.10;;;9.23;;
56927;SDS011;60850;52.502;13.426;2022-12-20T02:54:22;18.17;;;8.43;;
56927;SDS011;60850;52.502;13.426;2022-12-20T02:56:52;19.40;;;8.35;;
56927;SDS011;60850;52.502;13.426;2022-12-20T02:59:23;16.65;;;7.75;;
56927;SDS011;60850;52.502;13.426;2022-12-20T03:01:55;20.55;;;9.55;;
56927;SDS011;60850;52.502;13.426;2022-12-20T03:04:23;18.70;;;8.52;;
56927;SDS011;60850;52.502;13.426;2022-12-20T03:06:58;19.83;;;8.30;;
56927;SDS011;60850;52.502;13.426;2022-12-20T03:09:26;17.00;;;8.13;;
56927;SDS011;60850;52.502;13.426;2022-12-20T03:11:54;22.15;;;9.45;;
56927;SDS011;60850;52.502;13.426;2022-12-20T03:14:21;17.42;;;8.57;;
56927;SDS011;60850;52.502;13.426;2022-12-20T03:16:49;21.20;;;8.73;;
56927;SDS011;60850;52.502;13.426;2022-12-20T03:19:17;19.20;;;8.25;;
56927;SDS011;60850;52.502;13.426;2022-12-20T03:21:45;18.88;;;8.77;;
56927;SDS011;60850;52.502;13.426;2022-12-20T03:24:12;17.90;;;8.25;;
56927;SDS011;60850;52.502;13.426;2022-12-20T03:26:39;15.50;;;7.72;;
56927;SDS011;60850;52.502;13.426;2022-12-20T03:29:06;17.65;;;8.00;;
56927;SDS011;60850;52.502;13.426;2022-12-20T03:31:34;18.13;;;8.15;;
56927;SDS011;60850;52.502;13.426;2022-12-20T03:34:01;21.05;;;8.95;;
56927;SDS011;60850;52.502;13.426;2022-12-20T03:36:29;17.15;;;9.00;;
56927;SDS011;60850;52.502;13.426;2022-12-20T03:38:56;17.58;;;9.20;;
56927;SDS011;60850;52.502;13.426;2022-12-20T03:41:24;16.90;;;9.15;;
56927;SDS011;60850;52.502;13.426;2022-12-20T03:43:51;18.08;;;8.73;;
56927;SDS011;60850;52.502;13.426;2022-12-20T03:46:18;19.80;;;8.07;;
56927;SDS011;60850;52.502;13.426;2022-12-20T03:48:45;15.98;;;8.02;;
56927;SDS011;60850;52.502;13.426;2022-12-20T03:51:13;18.17;;;8.63;;
56927;SDS011;60850;52.502;13.426;2022-12-20T03:53:41;18.48;;;8.55;;
56927;SDS011;60850;52.502;13.426;2022-12-20T03:56:08;19.05;;;9.00;;
56927;SDS011;60850;52.502;13.426;2022-12-20T03:58:35;16.05;;;7.97;;
56927;SDS011;60850;52.502;13.426;2022-12-20T04:01:14;15.35;;;8.02;;
56927;SDS011;60850;52.502;13.426;2022-12-20T04:03:43;16.50;;;8.35;;
56927;SDS011;60850;52.502;13.426;2022-12-20T04:06:10;20.10;;;9.20;;
56927;SDS011;60850;52.502;13.426;2022-12-20T04:08:37;18.77;;;8.73;;
56927;SDS011;60850;52.502;13.426;2022-12-20T04:11:05;17.40;;;8.18;;
56927;SDS011;60850;52.502;13.426;2022-12-20T04:13:41;16.33;;;8.20;;
56927;SDS011;60850;52.502;13.426;2022-12-20T04:16:09;17.33;;;8.30;;
56927;SDS011;60850;52.502;13.426;2022-12-20T04:18:36;18.95;;;8.50;;
56927;SDS011;60850;52.502;13.426;2022-12-20T04:21:03;16.40;;;8.32;;
56927;SDS011;60850;52.502;13.426;2022-12-20T04:23:31;19.92;;;8.15;;
56927;SDS011;60850;52.502;13.426;2022-12-20T04:25:59;14.98;;;7.78;;
56927;SDS011;60850;52.502;13.426;2022-12-20T04:28:28;17.85;;;7.97;;
56927;SDS011;60850;52.502;13.426;2022-12-20T04:30:55;17.00;;;8.15;;
56927;SDS011;60850;52.502;13.426;2022-12-20T04:33:22;15.55;;;7.85;;
56927;SDS011;60850;52.502;13.426;2022-12-20T04:35:50;21.20;;;10.05;;
56927;SDS011;60850;52.502;13.426;2022-12-20T04:38:18;16.17;;;8.02;;
56927;SDS011;60850;52.502;13.426;2022-12-20T04:40:47;16.55;;;8.95;;
56927;SDS011;60850;52.502;13.426;2022-12-20T04:43:14;20.58;;;8.70;;
56927;SDS011;60850;52.502;13.426;2022-12-20T04:45:42;17.15;;;7.82;;
56927;SDS011;60850;52.502;13.426;2022-12-20T04:48:10;18.27;;;8.38;;
56927;SDS011;60850;52.502;13.426;2022-12-20T04:50:37;19.98;;;8.00;;
56927;SDS011;60850;52.502;13.426;2022-12-20T04:53:04;18.02;;;9.18;;
56927;SDS011;60850;52.502;13.426;2022-12-20T04:55:49;16.95;;;8.10;;
56927;SDS011;60850;52.502;13.426;2022-12-20T04:58:16;19.77;;;8.65;;
56927;SDS011;60850;52.502;13.426;2022-12-20T05:00:45;17.13;;;8.02;;
56927;SDS011;60850;52.502;13.426;2022-12-20T05:03:12;15.63;;;8.27;;
56927;SDS011;60850;52.502;13.426;2022-12-20T05:05:39;17.08;;;8.15;;
56927;SDS011;60850;52.502;13.426;2022-12-20T05:08:06;19.63;;;9.82;;
56927;SDS011;60850;52.502;13.426;2022-12-20T05:10:33;17.42;;;8.40;;
56927;SDS011;60850;52.502;13.426;2022-12-20T05:13:00;20.00;;;8.70;;
56927;SDS011;60850;52.502;13.426;2022-12-20T05:15:27;17.27;;;8.95;;
56927;SDS011;60850;52.502;13.426;2022-12-20T05:17:56;18.48;;;8.02;;
56927;SDS011;60850;52.502;13.426;2022-12-20T05:20:24;25.90;;;12.38;;
56927;SDS011;60850;52.502;13.426;2022-12-20T05:22:51;16.73;;;8.90;;
56927;SDS011;60850;52.502;13.426;2022-12-20T05:25:37;19.65;;;9.00;;
56927;SDS011;60850;52.502;13.426;2022-12-20T05:28:27;20.90;;;9.50;;
56927;SDS011;60850;52.502;13.426;2022-12-20T05:30:54;18.80;;;8.80;;
56927;SDS011;60850;52.502;13.426;2022-12-20T05:33:23;21.77;;;9.43;;
56927;SDS011;60850;52.502;13.426;2022-12-20T05:35:50;17.60;;;8.30;;
56927;SDS011;60850;52.502;13.426;2022-12-20T05:38:17;17.63;;;9.20;;
56927;SDS011;60850;52.502;13.426;2022-12-20T05:40:46;20.30;;;9.02;;
56927;SDS011;60850;52.502;13.426;2022-12-20T05:43:14;17.83;;;8.10;;
56927;SDS011;60850;52.502;13.426;2022-12-20T05:45:44;18.45;;;8.63;;
56927;SDS011;60850;52.502;13.426;2022-12-20T05:48:12;20.73;;;9.13;;
56927;SDS011;60850;52.502;13.426;2022-12-20T05:50:41;19.63;;;9.63;;
56927;SDS011;60850;52.502;13.426;2022-12-20T05:53:09;18.52;;;8.77;;
56927;SDS011;60850;52.502;13.426;2022-12-20T05:55:37;17.95;;;8.75;;
56927;SDS011;60850;52.502;13.426;2022-12-20T05:58:07;20.52;;;9.00;;
56927;SDS011;60850;52.502;13.426;2022-12-20T06:00:37;19.25;;;8.82;;
56927;SDS011;60850;52.502;13.426;2022-12-20T06:03:05;18.05;;;8.45;;
56927;SDS011;60850;52.502;13.426;2022-12-20T06:05:34;16.00;;;8.05;;
56927;SDS011;60850;52.502;13.426;2022-12-20T06:08:03;17.65;;;8.85;;
56927;SDS011;60850;52.502;13.426;2022-12-20T06:10:31;19.30;;;9.63;;
56927;SDS011;60850;52.502;13.426;2022-12-20T06:12:59;17.25;;;8.88;;
56927;SDS011;60850;52.502;13.426;2022-12-20T06:15:26;20.15;;;9.27;;
56927;SDS011;60850;52.502;13.426;2022-12-20T06:17:53;16.05;;;7.57;;
56927;SDS011;60850;52.502;13.426;2022-12-20T06:20:21;17.00;;;9.05;;
56927;SDS011;60850;52.502;13.426;2022-12-20T06:22:47;14.27;;;8.32;;
56927;SDS011;60850;52.502;13.426;2022-12-20T06:25:16;17.50;;;8.65;;
56927;SDS011;60850;52.502;13.426;2022-12-20T06:27:43;21.13;;;9.07;;
56927;SDS011;60850;52.502;13.426;2022-12-20T06:30:11;18.70;;;9.02;;
56927;SDS011;60850;52.502;13.426;2022-12-20T06:32:38;15.82;;;8.52;;
56927;SDS011;60850;52.502;13.426;2022-12-20T06:35:06;15.05;;;8.40;;
56927;SDS011;60850;52.502;13.426;2022-12-20T06:37:33;19.02;;;9.05;;
56927;SDS011;60850;52.502;13.426;2022-12-20T06:40:01;19.77;;;9.35;;
56927;SDS011;60850;52.502;13.426;2022-12-20T06:42:30;18.85;;;9.40;;
56927;SDS011;60850;52.502;13.426;2022-12-20T06:44:57;18.52;;;9.55;;
56927;SDS011;60850;52.502;13.426;2022-12-20T06:47:24;20.92;;;9.30;;
56927;SDS011;60850;52.502;13.426;2022-12-20T06:49:51;17.40;;;9.40;;
56927;SDS011;60850;52.502;13.426;2022-12-20T06:52:18;21.63;;;9.50;;
56927;SDS011;60850;52.502;13.426;2022-12-20T06:54:45;22.95;;;10.32;;
56927;SDS011;60850;52.502;13.426;2022-12-20T06:57:12;20.50;;;10.43;;
56927;SDS011;60850;52.502;13.426;2022-12-20T06:59:41;19.10;;;9.93;;
56927;SDS011;60850;52.502;13.426;2022-12-20T07:02:08;23.48;;;10.60;;
56927;SDS011;60850;52.502;13.426;2022-12-20T07:04:36;20.95;;;9.93;;
56927;SDS011;60850;52.502;13.426;2022-12-20T07:07:04;18.30;;;9.80;;
56927;SDS011;60850;52.502;13.426;2022-12-20T07:09:31;18.85;;;9.15;;
56927;SDS011;60850;52.502;13.426;2022-12-20T07:11:58;20.15;;;8.90;;
56927;SDS011;60850;52.502;13.426;2022-12-20T07:14:26;19.85;;;10.05;;
56927;SDS011;60850;52.502;13.426;2022-12-20T07:16:54;19.35;;;9.18;;
56927;SDS011;60850;52.502;13.426;2022-12-20T07:19:21;17.58;;;8.82;;
56927;SDS011;60850;52.502;13.426;2022-12-20T07:21:48;19.38;;;9.73;;
56927;SDS011;60850;52.502;13.426;2022-12-20T07:24:16;20.33;;;9.88;;
56927;SDS011;60850;52.502;13.426;2022-12-20T07:26:43;21.20;;;10.05;;
56927;SDS011;60850;52.502;13.426;2022-12-20T07:29:10;23.02;;;9.93;;
56927;SDS011;60850;52.502;13.426;2022-12-20T07:31:38;19.63;;;9.93;;
56927;SDS011;60850;52.502;13.426;2022-12-20T07:34:06;22.75;;;9.52;;
56927;SDS011;60850;52.502;13.426;2022-12-20T07:36:33;22.75;;;10.38;;
56927;SDS011;60850;52.502;13.426;2022-12-20T07:39:01;19.92;;;9.27;;
56927;SDS011;60850;52.502;13.426;2022-12-20T07:41:28;19.15;;;9.68;;
56927;SDS011;60850;52.502;13.426;2022-12-20T07:43:55;16.38;;;9.93;;
56927;SDS011;60850;52.502;13.426;2022-12-20T07:46:23;18.27;;;9.48;;
56927;SDS011;60850;52.502;13.426;2022-12-20T07:48:50;17.70;;;8.73;;
56927;SDS011;60850;52.502;13.426;2022-12-20T07:51:19;19.23;;;10.07;;
56927;SDS011;60850;52.502;13.426;2022-12-20T07:53:51;21.52;;;9.95;;
56927;SDS011;60850;52.502;13.426;2022-12-20T07:56:21;23.23;;;10.90;;
56927;SDS011;60850;52.502;13.426;2022-12-20T07:58:49;24.85;;;11.57;;
56927;SDS011;60850;52.502;13.426;2022-12-20T08:01:20;24.10;;;11.27;;
56927;SDS011;60850;52.502;13.426;2022-12-20T08:03:48;22.85;;;10.40;;
56927;SDS011;60850;52.502;13.426;2022-12-20T08:06:20;18.50;;;10.07;;
56927;SDS011;60850;52.502;13.426;2022-12-20T08:08:48;19.25;;;10.45;;
56927;SDS011;60850;52.502;13.426;2022-12-20T08:11:20;21.85;;;10.88;;
56927;SDS011;60850;52.502;13.426;2022-12-20T08:13:49;23.17;;;11.05;;
56927;SDS011;60850;52.502;13.426;2022-12-20T08:16:17;21.60;;;11.27;;
56927;SDS011;60850;52.502;13.426;2022-12-20T08:18:45;17.80;;;9.35;;
56927;SDS011;60850;52.502;13.426;2022-12-20T08:21:11;25.52;;;12.20;;
56927;SDS011;60850;52.502;13.426;2022-12-20T08:23:40;19.90;;;9.88;;
56927;SDS011;60850;52.502;13.426;2022-12-20T08:26:07;23.48;;;10.73;;
56927;SDS011;60850;52.502;13.426;2022-12-20T08:28:34;22.58;;;11.55;;
56927;SDS011;60850;52.502;13.426;2022-12-20T08:31:04;19.30;;;11.13;;
56927;SDS011;60850;52.502;13.426;2022-12-20T08:33:33;18.48;;;9.80;;
56927;SDS011;60850;52.502;13.426;2022-12-20T08:36:02;21.77;;;11.23;;
56927;SDS011;60850;52.502;13.426;2022-12-20T08:38:31;19.70;;;10.48;;
56927;SDS011;60850;52.502;13.426;2022-12-20T08:41:02;20.77;;;9.90;;
56927;SDS011;60850;52.502;13.426;2022-12-20T08:43:30;20.13;;;10.55;;
56927;SDS011;60850;52.502;13.426;2022-12-20T08:45:57;19.60;;;10.63;;
56927;SDS011;60850;52.502;13.426;2022-12-20T08:48:24;26.05;;;10.68;;
56927;SDS011;60850;52.502;13.426;2022-12-20T08:50:54;23.15;;;11.50;;
56927;SDS011;60850;52.502;13.426;2022-12-20T08:53:22;19.98;;;10.88;;
56927;SDS011;60850;52.502;13.426;2022-12-20T08:55:50;23.65;;;11.23;;
56927;SDS011;60850;52.502;13.426;2022-12-20T08:58:19;22.10;;;10.93;;
56927;SDS011;60850;52.502;13.426;2022-12-20T09:00:46;24.83;;;11.23;;
56927;SDS011;60850;52.502;13.426;2022-12-20T09:03:13;20.73;;;11.88;;
56927;SDS011;60850;52.502;13.426;2022-12-20T09:05:44;25.45;;;11.32;;
56927;SDS011;60850;52.502;13.426;2022-12-20T09:08:12;23.42;;;11.32;;
56927;SDS011;60850;52.502;13.426;2022-12-20T09:10:40;24.92;;;12.13;;
56927;SDS011;60850;52.502;13.426;2022-12-20T09:13:08;23.98;;;11.00;;
56927;SDS011;60850;52.502;13.426;2022-12-20T09:15:36;27.55;;;10.95;;
56927;SDS011;60850;52.502;13.426;2022-12-20T09:18:04;23.17;;;9.98;;
56927;SDS011;60850;52.502;13.426;2022-12-20T09:20:31;21.02;;;11.30;;
56927;SDS011;60850;52.502;13.426;2022-12-20T09:22:58;22.90;;;11.52;;
56927;SDS011;60850;52.502;13.426;2022-12-20T09:25:26;22.50;;;11.00;;
56927;SDS011;60850;52.502;13.426;2022-12-20T09:27:54;20.88;;;10.30;;
56927;SDS011;60850;52.502;13.426;2022-12-20T09:30:21;23.10;;;10.63;;
56927;SDS011;60850;52.502;13.426;2022-12-20T09:32:51;20.35;;;10.32;;
56927;SDS011;60850;52.502;13.426;2022-12-20T09:35:17;20.70;;;10.27;;
56927;SDS011;60850;52.502;13.426;2022-12-20T09:37:45;18.95;;;9.45;;
56927;SDS011;60850;52.502;13.426;2022-12-20T09:40:13;26.10;;;10.40;;
56927;SDS011;60850;52.502;13.426;2022-12-20T09:42:44;18.23;;;9.60;;
56927;SDS011;60850;52.502;13.426;2022-12-20T09:45:15;21.90;;;10.32;;
56927;SDS011;60850;52.502;13.426;2022-12-20T09:47:47;17.63;;;9.15;;
56927;SDS011;60850;52.502;13.426;2022-12-20T09:52:47;17.30;;;8.30;;
56927;SDS011;60850;52.502;13.426;2022-12-20T09:55:25;20.02;;;9.43;;
56927;SDS011;60850;52.502;13.426;2022-12-20T09:58:00;17.95;;;9.40;;
56927;SDS011;60850;52.502;13.426;2022-12-20T10:00:34;18.95;;;10.10;;
56927;SDS011;60850;52.502;13.426;2022-12-20T10:03:02;19.05;;;9.52;;
56927;SDS011;60850;52.502;13.426;2022-12-20T10:05:34;16.75;;;8.45;;
56927;SDS011;60850;52.502;13.426;2022-12-20T10:08:13;18.77;;;9.50;;
56927;SDS011;60850;52.502;13.426;2022-12-20T10:10:50;17.88;;;8.65;;
56927;SDS011;60850;52.502;13.426;2022-12-20T10:13:22;21.38;;;9.68;;
56927;SDS011;60850;52.502;13.426;2022-12-20T10:16:13;15.63;;;8.68;;
56927;SDS011;60850;52.502;13.426;2022-12-20T10:18:53;15.05;;;8.40;;
56927;SDS011;60850;52.502;13.426;2022-12-20T10:21:30;16.65;;;8.55;;
56927;SDS011;60850;52.502;13.426;2022-12-20T10:24:06;19.65;;;9.02;;
56927;SDS011;60850;52.502;13.426;2022-12-20T10:26:40;18.80;;;8.73;;
56927;SDS011;60850;52.502;13.426;2022-12-20T10:29:08;16.70;;;8.02;;
56927;SDS011;60850;52.502;13.426;2022-12-20T10:31:35;17.65;;;9.70;;
56927;SDS011;60850;52.502;13.426;2022-12-20T10:34:02;21.38;;;9.57;;
56927;SDS011;60850;52.502;13.426;2022-12-20T10:36:31;20.60;;;9.43;;
56927;SDS011;60850;52.502;13.426;2022-12-20T10:39:00;19.98;;;9.15;;
56927;SDS011;60850;52.502;13.426;2022-12-20T10:41:28;18.13;;;9.75;;
56927;SDS011;60850;52.502;13.426;2022-12-20T10:43:59;18.08;;;8.93;;
56927;SDS011;60850;52.502;13.426;2022-12-20T10:46:34;19.30;;;9.63;;
56927;SDS011;60850;52.502;13.426;2022-12-20T10:51:57;20.00;;;9.32;;
56927;SDS011;60850;52.502;13.426;2022-12-20T10:54:30;20.33;;;10.07;;
56927;SDS011;60850;52.502;13.426;2022-12-20T10:56:59;18.50;;;8.60;;
56927;SDS011;60850;52.502;13.426;2022-12-20T10:59:30;18.60;;;9.85;;
56927;SDS011;60850;52.502;13.426;2022-12-20T11:02:00;20.48;;;9.70;;
56927;SDS011;60850;52.502;13.426;2022-12-20T11:04:29;16.83;;;8.93;;
56927;SDS011;60850;52.502;13.426;2022-12-20T11:06:59;17.20;;;8.57;;
56927;SDS011;60850;52.502;13.426;2022-12-20T11:09:28;16.70;;;8.63;;
56927;SDS011;60850;52.502;13.426;2022-12-20T11:12:01;18.88;;;9.48;;
56927;SDS011;60850;52.502;13.426;2022-12-20T11:14:31;16.40;;;8.70;;
56927;SDS011;60850;52.502;13.426;2022-12-20T11:17:01;18.58;;;9.05;;
56927;SDS011;60850;52.502;13.426;2022-12-20T11:19:39;15.77;;;8.63;;
56927;SDS011;60850;52.502;13.426;2022-12-20T11:22:30;15.85;;;8.88;;
56927;SDS011;60850;52.502;13.426;2022-12-20T11:25:21;18.27;;;9.02;;
56927;SDS011;60850;52.502;13.426;2022-12-20T11:28:00;18.33;;;8.93;;
56927;SDS011;60850;52.502;13.426;2022-12-20T11:30:47;16.83;;;8.88;;
56927;SDS011;60850;52.502;13.426;2022-12-20T11:33:30;17.30;;;8.75;;
56927;SDS011;60850;52.502;13.426;2022-12-20T11:36:08;19.77;;;9.93;;
56927;SDS011;60850;52.502;13.426;2022-12-20T11:38:51;17.58;;;9.23;;
56927;SDS011;60850;52.502;13.426;2022-12-20T11:41:28;18.02;;;9.23;;
56927;SDS011;60850;52.502;13.426;2022-12-20T11:44:08;18.00;;;8.70;;
56927;SDS011;60850;52.502;13.426;2022-12-20T11:46:52;21.60;;;9.70;;
56927;SDS011;60850;52.502;13.426;2022-12-20T11:49:32;20.02;;;8.93;;
56927;SDS011;60850;52.502;13.426;2022-12-20T11:52:14;19.45;;;9.07;;
56927;SDS011;60850;52.502;13.426;2022-12-20T11:54:55;19.05;;;8.57;;
56927;SDS011;60850;52.502;13.426;2022-12-20T11:57:31;18.35;;;8.52;;
56927;SDS011;60850;52.502;13.426;2022-12-20T12:00:03;18.45;;;8.98;;
56927;SDS011;60850;52.502;13.426;2022-12-20T12:02:33;17.50;;;8.77;;
56927;SDS011;60850;52.502;13.426;2022-12-20T12:05:05;19.02;;;9.60;;
56927;SDS011;60850;52.502;13.426;2022-12-20T12:07:41;19.63;;;9.18;;
56927;SDS011;60850;52.502;13.426;2022-12-20T12:10:15;24.58;;;11.48;;
56927;SDS011;60850;52.502;13.426;2022-12-20T12:12:45;19.75;;;10.35;;
56927;SDS011;60850;52.502;13.426;2022-12-20T12:15:18;20.77;;;10.38;;
56927;SDS011;60850;52.502;13.426;2022-12-20T12:17:53;19.10;;;10.18;;
56927;SDS011;60850;52.502;13.426;2022-12-20T12:20:27;25.17;;;10.75;;
56927;SDS011;60850;52.502;13.426;2022-12-20T12:23:02;18.80;;;9.85;;
56927;SDS011;60850;52.502;13.426;2022-12-20T12:28:05;17.65;;;9.68;;
56927;SDS011;60850;52.502;13.426;2022-12-20T12:30:34;18.55;;;9.23;;
56927;SDS011;60850;52.502;13.426;2022-12-20T12:33:07;21.55;;;9.23;;
56927;SDS011;60850;52.502;13.426;2022-12-20T12:35:46;18.88;;;9.57;;
56927;SDS011;60850;52.502;13.426;2022-12-20T12:44:47;19.00;;;10.25;;
56927;SDS011;60850;52.502;13.426;2022-12-20T12:47:20;25.65;;;11.02;;
56927;SDS011;60850;52.502;13.426;2022-12-20T12:49:51;22.02;;;10.80;;
56927;SDS011;60850;52.502;13.426;2022-12-20T13:01:02;25.90;;;12.25;;
56927;SDS011;60850;52.502;13.426;2022-12-20T13:03:44;25.00;;;10.25;;
56927;SDS011;60850;52.502;13.426;2022-12-20T13:06:52;19.65;;;10.70;;
56927;SDS011;60850;52.502;13.426;2022-12-20T13:09:37;20.30;;;9.68;;
56927;SDS011;60850;52.502;13.426;2022-12-20T13:18:23;20.60;;;9.65;;
56927;SDS011;60850;52.502;13.426;2022-12-20T13:32:57;20.20;;;9.73;;
56927;SDS011;60850;52.502;13.426;2022-12-20T13:35:58;21.25;;;9.80;;
56927;SDS011;60850;52.502;13.426;2022-12-20T13:38:35;19.52;;;10.27;;
56927;SDS011;60850;52.502;13.426;2022-12-20T13:41:34;15.75;;;7.90;;
56927;SDS011;60850;52.502;13.426;2022-12-20T13:44:32;18.17;;;9.98;;
56927;SDS011;60850;52.502;13.426;2022-12-20T13:47:05;20.25;;;9.40;;
56927;SDS011;60850;52.502;13.426;2022-12-20T13:50:00;17.90;;;8.88;;
56927;SDS011;60850;52.502;13.426;2022-12-20T13:52:51;24.30;;;10.70;;
56927;SDS011;60850;52.502;13.426;2022-12-20T13:55:25;24.17;;;10.27;;
56927;SDS011;60850;52.502;13.426;2022-12-20T13:58:04;26.38;;;12.27;;
56927;SDS011;60850;52.502;13.426;2022-12-20T14:00:37;26.15;;;11.07;;
56927;SDS011;60850;52.502;13.426;2022-12-20T14:03:06;22.45;;;10.85;;
56927;SDS011;60850;52.502;13.426;2022-12-20T14:05:50;21.38;;;10.32;;
56927;SDS011;60850;52.502;13.426;2022-12-20T14:08:25;19.05;;;8.98;;
56927;SDS011;60850;52.502;13.426;2022-12-20T14:11:05;23.05;;;10.30;;
56927;SDS011;60850;52.502;13.426;2022-12-20T14:13:34;20.65;;;9.35;;
56927;SDS011;60850;52.502;13.426;2022-12-20T14:16:06;17.48;;;9.43;;
56927;SDS011;60850;52.502;13.426;2022-12-20T14:18:34;18.75;;;9.93;;
56927;SDS011;60850;52.502;13.426;2022-12-20T14:21:04;25.13;;;10.90;;
56927;SDS011;60850;52.502;13.426;2022-12-20T14:23:38;20.58;;;10.43;;
56927;SDS011;60850;52.502;13.426;2022-12-20T14:26:15;19.90;;;9.50;;
56927;SDS011;60850;52.502;13.426;2022-12-20T14:28:47;17.83;;;9.70;;
56927;SDS011;60850;52.502;13.426;2022-12-20T14:31:23;19.02;;;10.02;;
56927;SDS011;60850;52.502;13.426;2022-12-20T14:34:00;22.70;;;11.02;;
56927;SDS011;60850;52.502;13.426;2022-12-20T14:36:39;20.35;;;9.85;;
56927;SDS011;60850;52.502;13.426;2022-12-20T14:39:26;20.77;;;10.25;;
56927;SDS011;60850;52.502;13.426;2022-12-20T14:42:04;19.73;;;9.77;;
56927;SDS011;60850;52.502;13.426;2022-12-20T14:44:50;22.23;;;9.88;;
56927;SDS011;60850;52.502;13.426;2022-12-20T14:47:32;22.60;;;10.13;;
56927;SDS011;60850;52.502;13.426;2022-12-20T14:50:16;20.98;;;10.05;;
56927;SDS011;60850;52.502;13.426;2022-12-20T14:52:59;21.20;;;10.98;;
56927;SDS011;60850;52.502;13.426;2022-12-20T14:55:32;23.00;;;11.02;;
56927;SDS011;60850;52.502;13.426;2022-12-20T14:58:04;23.13;;;10.60;;
56927;SDS011;60850;52.502;13.426;2022-12-20T15:00:54;24.95;;;11.32;;
56927;SDS011;60850;52.502;13.426;2022-12-20T15:03:22;22.13;;;10.68;;
56927;SDS011;60850;52.502;13.426;2022-12-20T15:05:50;24.50;;;11.00;;
56927;SDS011;60850;52.502;13.426;2022-12-20T15:08:19;20.73;;;10.52;;
56927;SDS011;60850;52.502;13.426;2022-12-20T15:10:50;22.45;;;10.32;;
56927;SDS011;60850;52.502;13.426;2022-12-20T15:13:28;20.10;;;9.45;;
56927;SDS011;60850;52.502;13.426;2022-12-20T15:15:58;29.27;;;12.80;;
56927;SDS011;60850;52.502;13.426;2022-12-20T15:18:26;28.48;;;11.38;;
56927;SDS011;60850;52.502;13.426;2022-12-20T15:20:58;27.63;;;11.95;;
56927;SDS011;60850;52.502;13.426;2022-12-20T15:23:29;24.52;;;11.50;;